sensor_id;sensor_type;location;lat;lon;timestamp;temperature;humidity
13440;DHT22;6792;57.698;11.946;2022-10-29T00:00:25;21.10;61.70
13440;DHT22;6792;57.698;11.946;2022-10-29T00:02:56;21.00;60.90
13440;DHT22;6792;57.698;11.946;2022-10-29T00:05:25;21.10;60.80
13440;DHT22;6792;57.698;11.946;2022-10-29T00:07:54;21.10;61.60
13440;DHT22;6792;57.698;11.946;2022-10-29T00:10:31;21.10;61.50
13440;DHT22;6792;57.698;11.946;2022-10-29T00:13:09;21.10;61.50
13440;DHT22;6792;57.698;11.946;2022-10-29T00:15:45;21.10;60.60
13440;DHT22;6792;57.698;11.946;2022-10-29T00:18:14;21.10;61.20
13440;DHT22;6792;57.698;11.946;2022-10-29T00:23:16;21.10;61.20
13440;DHT22;6792;57.698;11.946;2022-10-29T00:25:45;21.10;61.10
13440;DHT22;6792;57.698;11.946;2022-10-29T00:28:14;21.10;61.00
13440;DHT22;6792;57.698;11.946;2022-10-29T00:30:43;21.10;60.90
13440;DHT22;6792;57.698;11.946;2022-10-29T00:33:15;21.10;60.80
13440;DHT22;6792;57.698;11.946;2022-10-29T00:35:54;21.10;60.70
13440;DHT22;6792;57.698;11.946;2022-10-29T00:38:42;21.10;60.70
13440;DHT22;6792;57.698;11.946;2022-10-29T00:41:13;21.10;60.70
13440;DHT22;6792;57.698;11.946;2022-10-29T00:46:34;21.10;59.90
13440;DHT22;6792;57.698;11.946;2022-10-29T00:49:03;21.00;60.30
13440;DHT22;6792;57.698;11.946;2022-10-29T00:51:32;21.00;60.20
13440;DHT22;6792;57.698;11.946;2022-10-29T00:54:05;21.00;60.00
13440;DHT22;6792;57.698;11.946;2022-10-29T00:56:37;20.90;59.90
13440;DHT22;6792;57.698;11.946;2022-10-29T00:59:07;20.80;59.90
13440;DHT22;6792;57.698;11.946;2022-10-29T01:01:38;20.70;59.20
13440;DHT22;6792;57.698;11.946;2022-10-29T01:04:07;20.70;59.70
13440;DHT22;6792;57.698;11.946;2022-10-29T01:06:37;20.70;59.60
13440;DHT22;6792;57.698;11.946;2022-10-29T01:09:11;20.70;59.40
13440;DHT22;6792;57.698;11.946;2022-10-29T01:11:46;20.60;59.30
13440;DHT22;6792;57.698;11.946;2022-10-29T01:14:19;20.60;59.10
13440;DHT22;6792;57.698;11.946;2022-10-29T01:16:52;20.50;58.50
13440;DHT22;6792;57.698;11.946;2022-10-29T01:19:27;20.50;58.50
13440;DHT22;6792;57.698;11.946;2022-10-29T01:22:00;20.50;58.30
13440;DHT22;6792;57.698;11.946;2022-10-29T01:24:53;20.50;59.40
13440;DHT22;6792;57.698;11.946;2022-10-29T01:27:48;20.40;58.70
13440;DHT22;6792;57.698;11.946;2022-10-29T01:30:26;20.40;58.70
13440;DHT22;6792;57.698;11.946;2022-10-29T01:35:53;20.30;57.90
13440;DHT22;6792;57.698;11.946;2022-10-29T01:38:28;20.30;57.90
13440;DHT22;6792;57.698;11.946;2022-10-29T01:41:02;20.30;58.40
13440;DHT22;6792;57.698;11.946;2022-10-29T01:43:35;20.30;57.80
13440;DHT22;6792;57.698;11.946;2022-10-29T01:46:08;20.30;58.40
13440;DHT22;6792;57.698;11.946;2022-10-29T01:48:41;20.20;58.90
13440;DHT22;6792;57.698;11.946;2022-10-29T01:51:22;20.20;58.30
13440;DHT22;6792;57.698;11.946;2022-10-29T01:53:48;20.10;57.60
13440;DHT22;6792;57.698;11.946;2022-10-29T01:56:18;20.10;58.20
13440;DHT22;6792;57.698;11.946;2022-10-29T01:58:49;20.10;58.10
13440;DHT22;6792;57.698;11.946;2022-10-29T02:01:28;20.10;58.10
13440;DHT22;6792;57.698;11.946;2022-10-29T02:03:59;20.10;57.60
13440;DHT22;6792;57.698;11.946;2022-10-29T02:06:35;20.10;58.10
13440;DHT22;6792;57.698;11.946;2022-10-29T02:09:11;20.10;57.40
13440;DHT22;6792;57.698;11.946;2022-10-29T02:11:46;20.10;57.90
13440;DHT22;6792;57.698;11.946;2022-10-29T02:14:19;20.00;57.80
13440;DHT22;6792;57.698;11.946;2022-10-29T02:16:49;20.00;57.80
13440;DHT22;6792;57.698;11.946;2022-10-29T02:19:19;20.00;57.70
13440;DHT22;6792;57.698;11.946;2022-10-29T02:21:50;20.00;57.70
13440;DHT22;6792;57.698;11.946;2022-10-29T02:24:20;19.80;57.10
13440;DHT22;6792;57.698;11.946;2022-10-29T02:26:51;19.90;57.70
13440;DHT22;6792;57.698;11.946;2022-10-29T02:29:23;19.90;57.70
13440;DHT22;6792;57.698;11.946;2022-10-29T02:31:52;19.90;57.60
13440;DHT22;6792;57.698;11.946;2022-10-29T02:34:23;19.90;57.50
13440;DHT22;6792;57.698;11.946;2022-10-29T02:36:53;19.80;57.50
13440;DHT22;6792;57.698;11.946;2022-10-29T02:39:24;19.80;57.50
13440;DHT22;6792;57.698;11.946;2022-10-29T02:41:56;19.80;57.30
13440;DHT22;6792;57.698;11.946;2022-10-29T02:44:25;19.80;57.30
13440;DHT22;6792;57.698;11.946;2022-10-29T02:46:54;19.80;57.30
13440;DHT22;6792;57.698;11.946;2022-10-29T02:49:23;19.80;57.20
13440;DHT22;6792;57.698;11.946;2022-10-29T02:51:52;19.80;57.20
13440;DHT22;6792;57.698;11.946;2022-10-29T02:54:21;19.80;57.30
13440;DHT22;6792;57.698;11.946;2022-10-29T02:56:50;19.70;57.20
13440;DHT22;6792;57.698;11.946;2022-10-29T02:59:19;19.70;57.20
13440;DHT22;6792;57.698;11.946;2022-10-29T03:01:49;19.70;57.20
13440;DHT22;6792;57.698;11.946;2022-10-29T03:04:18;19.70;57.20
13440;DHT22;6792;57.698;11.946;2022-10-29T03:06:47;19.60;57.10
13440;DHT22;6792;57.698;11.946;2022-10-29T03:09:16;19.60;57.10
13440;DHT22;6792;57.698;11.946;2022-10-29T03:11:48;19.60;57.10
13440;DHT22;6792;57.698;11.946;2022-10-29T03:14:17;19.60;57.10
13440;DHT22;6792;57.698;11.946;2022-10-29T03:16:46;19.60;57.10
13440;DHT22;6792;57.698;11.946;2022-10-29T03:19:15;19.60;57.00
13440;DHT22;6792;57.698;11.946;2022-10-29T03:21:44;19.60;57.10
13440;DHT22;6792;57.698;11.946;2022-10-29T03:24:17;19.60;57.00
13440;DHT22;6792;57.698;11.946;2022-10-29T03:26:46;19.60;57.00
13440;DHT22;6792;57.698;11.946;2022-10-29T03:29:15;19.60;56.50
13440;DHT22;6792;57.698;11.946;2022-10-29T03:31:46;19.50;56.40
13440;DHT22;6792;57.698;11.946;2022-10-29T03:34:15;19.60;57.00
13440;DHT22;6792;57.698;11.946;2022-10-29T03:36:44;19.50;57.00
13440;DHT22;6792;57.698;11.946;2022-10-29T03:39:13;19.50;56.90
13440;DHT22;6792;57.698;11.946;2022-10-29T03:41:44;19.60;56.80
13440;DHT22;6792;57.698;11.946;2022-10-29T03:44:13;19.60;56.80
13440;DHT22;6792;57.698;11.946;2022-10-29T03:46:42;19.60;56.80
13440;DHT22;6792;57.698;11.946;2022-10-29T03:52:17;19.50;56.70
13440;DHT22;6792;57.698;11.946;2022-10-29T03:54:46;19.40;56.10
13440;DHT22;6792;57.698;11.946;2022-10-29T03:57:16;19.40;56.30
13440;DHT22;6792;57.698;11.946;2022-10-29T03:59:49;19.50;56.20
13440;DHT22;6792;57.698;11.946;2022-10-29T04:02:19;19.50;56.70
13440;DHT22;6792;57.698;11.946;2022-10-29T04:04:48;19.50;56.60
13440;DHT22;6792;57.698;11.946;2022-10-29T04:07:19;19.50;56.50
13440;DHT22;6792;57.698;11.946;2022-10-29T04:09:48;19.50;56.50
13440;DHT22;6792;57.698;11.946;2022-10-29T04:12:17;19.50;56.40
13440;DHT22;6792;57.698;11.946;2022-10-29T04:14:46;19.50;56.40
13440;DHT22;6792;57.698;11.946;2022-10-29T04:17:15;19.50;56.40
13440;DHT22;6792;57.698;11.946;2022-10-29T04:19:44;19.50;56.30
13440;DHT22;6792;57.698;11.946;2022-10-29T04:22:13;19.50;56.30
13440;DHT22;6792;57.698;11.946;2022-10-29T04:24:45;19.50;56.20
13440;DHT22;6792;57.698;11.946;2022-10-29T04:27:14;19.50;56.10
13440;DHT22;6792;57.698;11.946;2022-10-29T04:29:43;19.50;56.10
13440;DHT22;6792;57.698;11.946;2022-10-29T04:32:12;19.50;56.00
13440;DHT22;6792;57.698;11.946;2022-10-29T04:34:41;19.40;55.90
13440;DHT22;6792;57.698;11.946;2022-10-29T04:37:10;19.40;55.90
13440;DHT22;6792;57.698;11.946;2022-10-29T04:39:39;19.40;55.80
13440;DHT22;6792;57.698;11.946;2022-10-29T04:42:08;19.40;55.80
13440;DHT22;6792;57.698;11.946;2022-10-29T04:44:37;19.40;55.80
13440;DHT22;6792;57.698;11.946;2022-10-29T04:47:06;19.40;55.80
13440;DHT22;6792;57.698;11.946;2022-10-29T04:49:35;19.40;55.70
13440;DHT22;6792;57.698;11.946;2022-10-29T04:52:05;19.40;55.70
13440;DHT22;6792;57.698;11.946;2022-10-29T04:54:34;19.40;55.70
13440;DHT22;6792;57.698;11.946;2022-10-29T04:57:03;19.40;55.60
13440;DHT22;6792;57.698;11.946;2022-10-29T04:59:32;19.40;55.70
13440;DHT22;6792;57.698;11.946;2022-10-29T05:02:01;19.40;55.60
13440;DHT22;6792;57.698;11.946;2022-10-29T05:04:30;19.40;55.60
13440;DHT22;6792;57.698;11.946;2022-10-29T05:06:59;19.40;55.60
13440;DHT22;6792;57.698;11.946;2022-10-29T05:09:28;19.40;55.60
13440;DHT22;6792;57.698;11.946;2022-10-29T05:11:58;19.50;55.70
13440;DHT22;6792;57.698;11.946;2022-10-29T05:14:27;19.40;55.70
13440;DHT22;6792;57.698;11.946;2022-10-29T05:16:59;19.40;55.70
13440;DHT22;6792;57.698;11.946;2022-10-29T05:19:30;19.40;56.40
13440;DHT22;6792;57.698;11.946;2022-10-29T05:22:01;19.40;55.80
13440;DHT22;6792;57.698;11.946;2022-10-29T05:24:32;19.30;55.40
13440;DHT22;6792;57.698;11.946;2022-10-29T05:27:01;19.40;55.90
13440;DHT22;6792;57.698;11.946;2022-10-29T05:29:30;19.40;56.10
13440;DHT22;6792;57.698;11.946;2022-10-29T05:31:59;19.40;56.10
13440;DHT22;6792;57.698;11.946;2022-10-29T05:34:29;19.50;56.20
13440;DHT22;6792;57.698;11.946;2022-10-29T05:36:59;19.40;56.10
13440;DHT22;6792;57.698;11.946;2022-10-29T05:39:28;19.40;55.60
13440;DHT22;6792;57.698;11.946;2022-10-29T05:41:57;19.40;56.20
13440;DHT22;6792;57.698;11.946;2022-10-29T05:44:26;19.40;56.20
13440;DHT22;6792;57.698;11.946;2022-10-29T05:46:55;19.40;56.20
13440;DHT22;6792;57.698;11.946;2022-10-29T05:49:24;19.40;56.20
13440;DHT22;6792;57.698;11.946;2022-10-29T05:51:53;19.40;56.20
13440;DHT22;6792;57.698;11.946;2022-10-29T05:54:22;19.40;56.10
13440;DHT22;6792;57.698;11.946;2022-10-29T05:56:53;19.40;56.10
13440;DHT22;6792;57.698;11.946;2022-10-29T05:59:22;19.40;56.10
13440;DHT22;6792;57.698;11.946;2022-10-29T06:01:51;19.30;56.10
13440;DHT22;6792;57.698;11.946;2022-10-29T06:04:21;19.30;56.10
13440;DHT22;6792;57.698;11.946;2022-10-29T06:06:50;19.30;56.10
13440;DHT22;6792;57.698;11.946;2022-10-29T06:09:19;19.20;56.10
13440;DHT22;6792;57.698;11.946;2022-10-29T06:11:47;19.20;56.10
13440;DHT22;6792;57.698;11.946;2022-10-29T06:14:16;19.20;56.20
13440;DHT22;6792;57.698;11.946;2022-10-29T06:16:45;19.20;56.80
13440;DHT22;6792;57.698;11.946;2022-10-29T06:19:14;19.20;56.20
13440;DHT22;6792;57.698;11.946;2022-10-29T06:21:43;19.10;56.20
13440;DHT22;6792;57.698;11.946;2022-10-29T06:24:12;19.10;56.30
13440;DHT22;6792;57.698;11.946;2022-10-29T06:26:41;19.20;56.30
13440;DHT22;6792;57.698;11.946;2022-10-29T06:29:10;19.10;56.80
13440;DHT22;6792;57.698;11.946;2022-10-29T06:31:39;19.10;56.30
13440;DHT22;6792;57.698;11.946;2022-10-29T06:34:08;19.10;56.30
13440;DHT22;6792;57.698;11.946;2022-10-29T06:36:37;19.10;56.30
13440;DHT22;6792;57.698;11.946;2022-10-29T06:39:06;19.10;56.30
13440;DHT22;6792;57.698;11.946;2022-10-29T06:41:35;19.10;56.30
13440;DHT22;6792;57.698;11.946;2022-10-29T06:44:04;19.10;56.40
13440;DHT22;6792;57.698;11.946;2022-10-29T06:46:33;19.10;56.40
13440;DHT22;6792;57.698;11.946;2022-10-29T06:49:02;19.10;56.40
13440;DHT22;6792;57.698;11.946;2022-10-29T06:51:31;19.10;56.40
13440;DHT22;6792;57.698;11.946;2022-10-29T06:54:00;19.10;56.90
13440;DHT22;6792;57.698;11.946;2022-10-29T06:59:08;19.10;56.40
13440;DHT22;6792;57.698;11.946;2022-10-29T07:01:37;19.10;56.40
13440;DHT22;6792;57.698;11.946;2022-10-29T07:04:06;19.10;56.50
13440;DHT22;6792;57.698;11.946;2022-10-29T07:06:35;19.20;56.50
13440;DHT22;6792;57.698;11.946;2022-10-29T07:09:04;19.20;56.50
13440;DHT22;6792;57.698;11.946;2022-10-29T07:11:33;19.20;56.50
13440;DHT22;6792;57.698;11.946;2022-10-29T07:14:02;19.30;56.50
13440;DHT22;6792;57.698;11.946;2022-10-29T07:16:32;19.30;56.60
13440;DHT22;6792;57.698;11.946;2022-10-29T07:19:01;19.30;56.60
13440;DHT22;6792;57.698;11.946;2022-10-29T07:21:30;19.30;56.60
13440;DHT22;6792;57.698;11.946;2022-10-29T07:23:59;19.30;56.70
13440;DHT22;6792;57.698;11.946;2022-10-29T07:26:28;19.30;56.70
13440;DHT22;6792;57.698;11.946;2022-10-29T07:28:57;19.30;56.80
13440;DHT22;6792;57.698;11.946;2022-10-29T07:31:26;19.30;56.90
13440;DHT22;6792;57.698;11.946;2022-10-29T07:33:56;19.30;56.90
13440;DHT22;6792;57.698;11.946;2022-10-29T07:36:25;19.30;57.00
13440;DHT22;6792;57.698;11.946;2022-10-29T07:38:54;19.30;57.00
13440;DHT22;6792;57.698;11.946;2022-10-29T07:41:23;19.30;57.10
13440;DHT22;6792;57.698;11.946;2022-10-29T07:43:52;19.40;57.00
13440;DHT22;6792;57.698;11.946;2022-10-29T07:46:21;19.40;57.00
13440;DHT22;6792;57.698;11.946;2022-10-29T07:48:50;19.40;57.00
13440;DHT22;6792;57.698;11.946;2022-10-29T07:51:19;19.40;57.10
13440;DHT22;6792;57.698;11.946;2022-10-29T07:53:47;19.40;57.10
13440;DHT22;6792;57.698;11.946;2022-10-29T07:56:16;19.40;57.20
13440;DHT22;6792;57.698;11.946;2022-10-29T07:58:46;19.40;57.30
13440;DHT22;6792;57.698;11.946;2022-10-29T08:01:17;19.40;57.20
13440;DHT22;6792;57.698;11.946;2022-10-29T08:06:27;19.50;56.70
13440;DHT22;6792;57.698;11.946;2022-10-29T08:08:57;19.50;57.30
13440;DHT22;6792;57.698;11.946;2022-10-29T08:11:25;19.50;57.20
13440;DHT22;6792;57.698;11.946;2022-10-29T08:13:54;19.50;57.30
13440;DHT22;6792;57.698;11.946;2022-10-29T08:16:23;19.50;57.80
13440;DHT22;6792;57.698;11.946;2022-10-29T08:18:52;19.50;57.20
13440;DHT22;6792;57.698;11.946;2022-10-29T08:21:22;19.50;57.20
13440;DHT22;6792;57.698;11.946;2022-10-29T08:23:51;19.50;57.30
13440;DHT22;6792;57.698;11.946;2022-10-29T08:26:20;19.50;57.30
13440;DHT22;6792;57.698;11.946;2022-10-29T08:28:49;19.50;57.30
13440;DHT22;6792;57.698;11.946;2022-10-29T08:31:17;19.40;56.70
13440;DHT22;6792;57.698;11.946;2022-10-29T08:33:48;19.50;57.40
13440;DHT22;6792;57.698;11.946;2022-10-29T08:36:17;19.50;57.40
13440;DHT22;6792;57.698;11.946;2022-10-29T08:38:47;19.50;57.30
13440;DHT22;6792;57.698;11.946;2022-10-29T08:41:24;19.50;57.40
13440;DHT22;6792;57.698;11.946;2022-10-29T08:44:17;19.50;57.40
13440;DHT22;6792;57.698;11.946;2022-10-29T08:46:49;19.50;57.50
13440;DHT22;6792;57.698;11.946;2022-10-29T08:49:20;19.40;57.50
13440;DHT22;6792;57.698;11.946;2022-10-29T08:51:53;19.40;57.70
13440;DHT22;6792;57.698;11.946;2022-10-29T08:54:24;19.40;57.70
13440;DHT22;6792;57.698;11.946;2022-10-29T08:56:57;19.50;57.70
13440;DHT22;6792;57.698;11.946;2022-10-29T08:59:30;19.40;57.10
13440;DHT22;6792;57.698;11.946;2022-10-29T09:02:00;19.50;57.60
13440;DHT22;6792;57.698;11.946;2022-10-29T09:04:32;19.50;57.60
13440;DHT22;6792;57.698;11.946;2022-10-29T09:07:18;19.50;57.60
13440;DHT22;6792;57.698;11.946;2022-10-29T09:09:53;19.50;57.60
13440;DHT22;6792;57.698;11.946;2022-10-29T09:12:35;19.50;57.60
13440;DHT22;6792;57.698;11.946;2022-10-29T09:18:04;19.50;57.70
13440;DHT22;6792;57.698;11.946;2022-10-29T09:20:42;19.50;57.60
13440;DHT22;6792;57.698;11.946;2022-10-29T09:23:15;19.50;57.60
13440;DHT22;6792;57.698;11.946;2022-10-29T09:25:47;19.50;57.70
13440;DHT22;6792;57.698;11.946;2022-10-29T09:28:23;19.50;57.70
13440;DHT22;6792;57.698;11.946;2022-10-29T09:30:56;19.60;57.80
13440;DHT22;6792;57.698;11.946;2022-10-29T09:36:13;19.60;57.70
13440;DHT22;6792;57.698;11.946;2022-10-29T09:38:46;19.60;57.80
13440;DHT22;6792;57.698;11.946;2022-10-29T09:41:16;19.60;57.70
13440;DHT22;6792;57.698;11.946;2022-10-29T09:43:49;19.60;57.70
13440;DHT22;6792;57.698;11.946;2022-10-29T09:46:23;19.60;57.70
13440;DHT22;6792;57.698;11.946;2022-10-29T09:48:55;19.60;57.70
13440;DHT22;6792;57.698;11.946;2022-10-29T09:51:30;19.60;57.70
13440;DHT22;6792;57.698;11.946;2022-10-29T09:54:00;19.60;57.80
13440;DHT22;6792;57.698;11.946;2022-10-29T09:56:30;19.60;57.90
13440;DHT22;6792;57.698;11.946;2022-10-29T09:59:06;19.70;58.40
13440;DHT22;6792;57.698;11.946;2022-10-29T10:01:34;19.70;57.30
13440;DHT22;6792;57.698;11.946;2022-10-29T10:04:05;19.70;57.80
13440;DHT22;6792;57.698;11.946;2022-10-29T10:06:42;19.70;57.70
13440;DHT22;6792;57.698;11.946;2022-10-29T10:09:10;19.70;57.20
13440;DHT22;6792;57.698;11.946;2022-10-29T10:11:41;19.70;57.70
13440;DHT22;6792;57.698;11.946;2022-10-29T10:14:15;19.70;57.70
13440;DHT22;6792;57.698;11.946;2022-10-29T10:16:44;19.60;57.80
13440;DHT22;6792;57.698;11.946;2022-10-29T10:19:25;19.60;57.90
13440;DHT22;6792;57.698;11.946;2022-10-29T10:21:58;19.60;57.90
13440;DHT22;6792;57.698;11.946;2022-10-29T10:24:31;19.70;57.40
13440;DHT22;6792;57.698;11.946;2022-10-29T10:27:00;19.70;57.90
13440;DHT22;6792;57.698;11.946;2022-10-29T10:29:29;19.70;57.90
13440;DHT22;6792;57.698;11.946;2022-10-29T10:32:14;19.70;57.80
13440;DHT22;6792;57.698;11.946;2022-10-29T10:34:44;19.70;57.80
13440;DHT22;6792;57.698;11.946;2022-10-29T10:37:17;19.70;57.90
13440;DHT22;6792;57.698;11.946;2022-10-29T10:39:48;19.70;57.40
13440;DHT22;6792;57.698;11.946;2022-10-29T10:42:21;19.70;57.40
13440;DHT22;6792;57.698;11.946;2022-10-29T10:44:55;19.70;57.90
13440;DHT22;6792;57.698;11.946;2022-10-29T10:47:24;19.80;57.90
13440;DHT22;6792;57.698;11.946;2022-10-29T10:50:04;19.80;57.40
13440;DHT22;6792;57.698;11.946;2022-10-29T10:52:35;19.70;57.90
13440;DHT22;6792;57.698;11.946;2022-10-29T10:55:06;19.80;58.00
13440;DHT22;6792;57.698;11.946;2022-10-29T10:57:39;19.80;57.30
13440;DHT22;6792;57.698;11.946;2022-10-29T11:00:14;19.80;57.80
13440;DHT22;6792;57.698;11.946;2022-10-29T11:02:47;19.80;57.80
13440;DHT22;6792;57.698;11.946;2022-10-29T11:05:18;19.80;57.70
13440;DHT22;6792;57.698;11.946;2022-10-29T11:07:52;19.80;57.70
13440;DHT22;6792;57.698;11.946;2022-10-29T11:10:24;19.90;57.80
13440;DHT22;6792;57.698;11.946;2022-10-29T11:13:18;19.90;57.70
13440;DHT22;6792;57.698;11.946;2022-10-29T11:15:51;19.80;57.70
13440;DHT22;6792;57.698;11.946;2022-10-29T11:18:23;19.90;57.70
13440;DHT22;6792;57.698;11.946;2022-10-29T11:21:05;19.90;57.60
13440;DHT22;6792;57.698;11.946;2022-10-29T11:23:41;19.90;57.60
13440;DHT22;6792;57.698;11.946;2022-10-29T11:26:13;19.90;57.70
13440;DHT22;6792;57.698;11.946;2022-10-29T11:28:47;19.80;57.60
13440;DHT22;6792;57.698;11.946;2022-10-29T11:31:21;19.80;57.60
13440;DHT22;6792;57.698;11.946;2022-10-29T11:33:56;19.80;57.70
13440;DHT22;6792;57.698;11.946;2022-10-29T11:36:29;19.80;57.70
13440;DHT22;6792;57.698;11.946;2022-10-29T11:39:00;19.80;57.70
13440;DHT22;6792;57.698;11.946;2022-10-29T11:41:33;19.80;57.10
13440;DHT22;6792;57.698;11.946;2022-10-29T11:44:06;19.80;57.70
13440;DHT22;6792;57.698;11.946;2022-10-29T11:46:38;19.90;57.70
13440;DHT22;6792;57.698;11.946;2022-10-29T11:49:18;19.90;57.70
13440;DHT22;6792;57.698;11.946;2022-10-29T11:51:52;19.80;57.80
13440;DHT22;6792;57.698;11.946;2022-10-29T11:54:29;19.80;57.20
13440;DHT22;6792;57.698;11.946;2022-10-29T11:57:03;19.80;57.80
13440;DHT22;6792;57.698;11.946;2022-10-29T12:02:30;19.80;57.70
13440;DHT22;6792;57.698;11.946;2022-10-29T12:04:58;19.90;57.80
13440;DHT22;6792;57.698;11.946;2022-10-29T12:07:35;19.90;57.80
13440;DHT22;6792;57.698;11.946;2022-10-29T12:10:20;19.80;57.80
13440;DHT22;6792;57.698;11.946;2022-10-29T12:12:52;19.80;57.80
13440;DHT22;6792;57.698;11.946;2022-10-29T12:15:24;19.80;57.90
13440;DHT22;6792;57.698;11.946;2022-10-29T12:18:00;19.80;57.90
13440;DHT22;6792;57.698;11.946;2022-10-29T12:20:34;19.80;57.40
13440;DHT22;6792;57.698;11.946;2022-10-29T12:23:08;19.80;58.00
13440;DHT22;6792;57.698;11.946;2022-10-29T12:25:41;19.80;57.90
13440;DHT22;6792;57.698;11.946;2022-10-29T12:28:14;19.80;58.00
13440;DHT22;6792;57.698;11.946;2022-10-29T12:30:51;19.80;58.00
13440;DHT22;6792;57.698;11.946;2022-10-29T12:33:22;19.80;57.40
13440;DHT22;6792;57.698;11.946;2022-10-29T12:35:55;19.90;58.40
13440;DHT22;6792;57.698;11.946;2022-10-29T12:38:31;19.90;57.90
13440;DHT22;6792;57.698;11.946;2022-10-29T12:41:02;19.90;57.90
13440;DHT22;6792;57.698;11.946;2022-10-29T12:43:34;19.90;57.80
13440;DHT22;6792;57.698;11.946;2022-10-29T12:46:10;19.90;57.70
13440;DHT22;6792;57.698;11.946;2022-10-29T12:48:44;19.90;57.80
13440;DHT22;6792;57.698;11.946;2022-10-29T12:51:15;19.90;57.80
13440;DHT22;6792;57.698;11.946;2022-10-29T12:53:51;19.90;57.80
13440;DHT22;6792;57.698;11.946;2022-10-29T12:56:19;19.90;57.80
13440;DHT22;6792;57.698;11.946;2022-10-29T12:58:50;19.90;57.80
13440;DHT22;6792;57.698;11.946;2022-10-29T13:01:44;20.00;57.80
13440;DHT22;6792;57.698;11.946;2022-10-29T13:04:30;20.00;58.00
13440;DHT22;6792;57.698;11.946;2022-10-29T13:07:08;20.00;57.80
13440;DHT22;6792;57.698;11.946;2022-10-29T13:09:36;20.00;57.80
13440;DHT22;6792;57.698;11.946;2022-10-29T13:12:08;20.00;57.80
13440;DHT22;6792;57.698;11.946;2022-10-29T13:14:40;19.90;57.80
13440;DHT22;6792;57.698;11.946;2022-10-29T13:17:25;20.00;57.90
13440;DHT22;6792;57.698;11.946;2022-10-29T13:19:55;20.00;57.90
13440;DHT22;6792;57.698;11.946;2022-10-29T13:22:49;20.00;57.80
13440;DHT22;6792;57.698;11.946;2022-10-29T13:31:49;20.00;57.80
13440;DHT22;6792;57.698;11.946;2022-10-29T13:34:55;20.00;58.00
13440;DHT22;6792;57.698;11.946;2022-10-29T13:43:31;19.90;58.10
13440;DHT22;6792;57.698;11.946;2022-10-29T13:46:23;20.00;57.90
13440;DHT22;6792;57.698;11.946;2022-10-29T13:48:51;20.00;57.30
13440;DHT22;6792;57.698;11.946;2022-10-29T13:51:27;20.00;57.80
13440;DHT22;6792;57.698;11.946;2022-10-29T13:54:02;20.10;57.80
13440;DHT22;6792;57.698;11.946;2022-10-29T13:56:34;20.10;57.90
13440;DHT22;6792;57.698;11.946;2022-10-29T13:59:07;20.00;57.70
13440;DHT22;6792;57.698;11.946;2022-10-29T14:01:37;20.10;57.80
13440;DHT22;6792;57.698;11.946;2022-10-29T14:04:14;20.00;57.80
13440;DHT22;6792;57.698;11.946;2022-10-29T14:06:44;20.10;57.30
13440;DHT22;6792;57.698;11.946;2022-10-29T14:09:18;20.10;57.80
13440;DHT22;6792;57.698;11.946;2022-10-29T14:11:51;20.10;57.20
13440;DHT22;6792;57.698;11.946;2022-10-29T14:14:28;20.10;57.70
13440;DHT22;6792;57.698;11.946;2022-10-29T14:17:11;20.10;57.70
13440;DHT22;6792;57.698;11.946;2022-10-29T14:19:44;20.10;57.60
13440;DHT22;6792;57.698;11.946;2022-10-29T14:22:32;20.10;57.10
13440;DHT22;6792;57.698;11.946;2022-10-29T14:25:24;20.10;57.10
13440;DHT22;6792;57.698;11.946;2022-10-29T14:28:09;20.00;57.80
13440;DHT22;6792;57.698;11.946;2022-10-29T14:30:40;20.00;57.20
13440;DHT22;6792;57.698;11.946;2022-10-29T14:33:23;20.10;57.80
13440;DHT22;6792;57.698;11.946;2022-10-29T14:35:58;20.10;57.10
13440;DHT22;6792;57.698;11.946;2022-10-29T14:38:33;20.00;57.10
13440;DHT22;6792;57.698;11.946;2022-10-29T14:41:02;20.10;57.20
13440;DHT22;6792;57.698;11.946;2022-10-29T14:43:32;20.10;57.60
13440;DHT22;6792;57.698;11.946;2022-10-29T14:46:21;20.10;57.60
13440;DHT22;6792;57.698;11.946;2022-10-29T14:48:54;20.10;57.60
13440;DHT22;6792;57.698;11.946;2022-10-29T14:51:24;20.00;57.70
13440;DHT22;6792;57.698;11.946;2022-10-29T14:53:56;20.00;57.70
13440;DHT22;6792;57.698;11.946;2022-10-29T14:56:34;20.10;57.70
13440;DHT22;6792;57.698;11.946;2022-10-29T14:59:08;20.10;57.60
13440;DHT22;6792;57.698;11.946;2022-10-29T15:01:47;20.10;57.60
13440;DHT22;6792;57.698;11.946;2022-10-29T15:04:19;20.10;57.60
13440;DHT22;6792;57.698;11.946;2022-10-29T15:06:48;20.10;57.50
13440;DHT22;6792;57.698;11.946;2022-10-29T15:09:20;20.10;57.50
13440;DHT22;6792;57.698;11.946;2022-10-29T15:12:01;20.20;57.50
13440;DHT22;6792;57.698;11.946;2022-10-29T15:14:44;20.20;57.40
13440;DHT22;6792;57.698;11.946;2022-10-29T15:17:13;20.20;56.90
13440;DHT22;6792;57.698;11.946;2022-10-29T15:19:44;20.20;57.50
13440;DHT22;6792;57.698;11.946;2022-10-29T15:22:18;20.10;56.90
13440;DHT22;6792;57.698;11.946;2022-10-29T15:24:49;20.10;57.50
13440;DHT22;6792;57.698;11.946;2022-10-29T15:27:19;20.10;57.40
13440;DHT22;6792;57.698;11.946;2022-10-29T15:29:52;20.10;57.40
13440;DHT22;6792;57.698;11.946;2022-10-29T15:32:21;20.10;58.00
13440;DHT22;6792;57.698;11.946;2022-10-29T15:34:51;20.10;57.40
13440;DHT22;6792;57.698;11.946;2022-10-29T15:37:38;20.10;57.40
13440;DHT22;6792;57.698;11.946;2022-10-29T15:40:02;20.10;56.90
13440;DHT22;6792;57.698;11.946;2022-10-29T15:42:34;20.00;57.50
13440;DHT22;6792;57.698;11.946;2022-10-29T15:45:17;20.00;57.40
13440;DHT22;6792;57.698;11.946;2022-10-29T15:47:49;20.00;57.40
13440;DHT22;6792;57.698;11.946;2022-10-29T15:50:20;20.00;57.50
13440;DHT22;6792;57.698;11.946;2022-10-29T15:52:55;20.00;57.50
13440;DHT22;6792;57.698;11.946;2022-10-29T15:55:27;20.00;57.50
13440;DHT22;6792;57.698;11.946;2022-10-29T15:58:03;19.90;57.50
13440;DHT22;6792;57.698;11.946;2022-10-29T16:00:32;19.90;57.60
13440;DHT22;6792;57.698;11.946;2022-10-29T16:03:10;19.90;57.50
13440;DHT22;6792;57.698;11.946;2022-10-29T16:05:38;19.80;57.00
13440;DHT22;6792;57.698;11.946;2022-10-29T16:08:08;19.90;57.50
13440;DHT22;6792;57.698;11.946;2022-10-29T16:10:39;19.90;57.50
13440;DHT22;6792;57.698;11.946;2022-10-29T16:13:09;19.90;57.50
13440;DHT22;6792;57.698;11.946;2022-10-29T16:15:39;19.80;57.40
13440;DHT22;6792;57.698;11.946;2022-10-29T16:18:08;19.80;57.50
13440;DHT22;6792;57.698;11.946;2022-10-29T16:20:37;19.80;57.50
13440;DHT22;6792;57.698;11.946;2022-10-29T16:23:07;19.80;57.40
13440;DHT22;6792;57.698;11.946;2022-10-29T16:25:37;19.90;57.40
13440;DHT22;6792;57.698;11.946;2022-10-29T16:28:07;19.80;57.40
13440;DHT22;6792;57.698;11.946;2022-10-29T16:30:37;19.80;57.30
13440;DHT22;6792;57.698;11.946;2022-10-29T16:33:08;19.80;57.40
13440;DHT22;6792;57.698;11.946;2022-10-29T16:35:39;19.80;56.90
13440;DHT22;6792;57.698;11.946;2022-10-29T16:38:08;19.80;57.50